Time;durP1;ratioP1;P1;durP2;ratioP2;P2;SDS_P1;SDS_P2;PMS_P1;PMS_P2;Temp;Humidity;BMP_temperature;BMP_pressure;BME280_temperature;BME280_humidity;BME280_pressure;Samples;Min_cycle;Max_cycle;Signal;HPM_P1;HPM_P2
2022/08/05 00:00:56;;;;;;;2.80;1.53;;;24.00;99.90;;;;;;5008226;28;20667;-76
2022/08/05 00:03:22;;;;;;;8.43;1.70;;;24.00;99.90;;;;;;4993117;28;20654;-76
2022/08/05 00:05:48;;;;;;;3.70;1.27;;;24.00;99.90;;;;;;4975333;28;20626;-76
2022/08/05 00:08:13;;;;;;;3.90;1.70;;;24.00;99.90;;;;;;5008086;28;20175;-76
2022/08/05 00:10:39;;;;;;;5.10;1.50;;;23.90;99.90;;;;;;4991383;28;20210;-76
2022/08/05 00:13:05;;;;;;;2.10;1.37;;;23.90;99.90;;;;;;4992926;28;20540;-76
2022/08/05 00:15:31;;;;;;;2.43;1.40;;;23.90;99.90;;;;;;4991393;28;20731;-76
2022/08/05 00:17:56;;;;;;;2.73;1.40;;;23.90;99.90;;;;;;4991710;28;20182;-76
2022/08/05 00:20:22;;;;;;;3.33;1.47;;;23.90;99.90;;;;;;4992696;28;20199;-77
2022/08/05 00:22:48;;;;;;;3.63;1.77;;;23.90;99.90;;;;;;4991447;28;20205;-76
2022/08/05 00:25:13;;;;;;;4.63;1.40;;;23.90;99.90;;;;;;4992317;28;20221;-76
2022/08/05 00:27:39;;;;;;;4.70;1.93;;;23.90;99.90;;;;;;4991561;28;20660;-76
2022/08/05 00:30:06;;;;;;;2.60;1.73;;;23.90;99.90;;;;;;4992906;28;20656;-77
2022/08/05 00:32:31;;;;;;;9.33;2.10;;;23.90;99.90;;;;;;4994640;28;20175;-77
2022/08/05 00:34:57;;;;;;;3.00;1.57;;;23.90;99.90;;;;;;5019793;23;20671;-76
2022/08/05 00:37:23;;;;;;;2.40;1.50;;;23.90;99.90;;;;;;5002340;28;20261;-77
2022/08/05 00:39:49;;;;;;;1.97;1.50;;;23.90;99.90;;;;;;4992579;28;20167;-77
2022/08/05 00:42:15;;;;;;;3.07;1.50;;;23.90;99.90;;;;;;5007709;28;20565;-77
2022/08/05 00:44:42;;;;;;;3.43;1.80;;;23.90;99.90;;;;;;4991978;28;20313;-76
2022/08/05 00:47:08;;;;;;;3.80;1.87;;;23.80;99.90;;;;;;4991400;28;20574;-76
2022/08/05 00:49:33;;;;;;;3.80;2.03;;;23.90;99.90;;;;;;4992783;28;20562;-76
2022/08/05 00:51:59;;;;;;;5.20;1.90;;;23.90;99.90;;;;;;4992949;28;20185;-77
2022/08/05 00:54:25;;;;;;;4.60;2.30;;;23.80;99.90;;;;;;4993130;28;20198;-77
2022/08/05 00:56:51;;;;;;;3.37;2.30;;;23.80;99.90;;;;;;4994584;28;20585;-77
2022/08/05 00:59:16;;;;;;;3.83;1.30;;;23.80;99.90;;;;;;4974944;28;20562;-77
2022/08/05 01:01:42;;;;;;;5.27;1.87;;;23.80;99.90;;;;;;4992309;28;20174;-76
2022/08/05 01:04:08;;;;;;;3.73;1.20;;;23.70;99.90;;;;;;4990901;28;20552;-79
2022/08/05 01:06:34;;;;;;;5.80;1.90;;;23.80;99.90;;;;;;4992044;28;20581;-78
2022/08/05 01:08:59;;;;;;;4.80;1.83;;;23.70;99.90;;;;;;4992304;28;20254;-78
2022/08/05 01:11:33;;;;;;;2.30;1.50;;;23.70;99.90;;;;;;4992385;28;20195;-78
2022/08/05 01:14:05;;;;;;;4.63;1.70;;;23.60;99.90;;;;;;5007484;28;20203;-78
2022/08/05 01:16:49;;;;;;;2.70;1.30;;;23.60;99.90;;;;;;4991835;28;20562;-77
2022/08/05 01:19:21;;;;;;;3.70;1.53;;;23.60;99.90;;;;;;4992243;28;21125;-77
2022/08/05 01:22:09;;;;;;;2.97;1.37;;;23.60;99.90;;;;;;4992233;28;20660;-77
2022/08/05 01:24:57;;;;;;;2.80;1.70;;;23.60;99.90;;;;;;5006991;28;20647;-77
2022/08/05 01:27:50;;;;;;;2.90;1.80;;;23.60;99.90;;;;;;4990874;28;20961;-77
2022/08/05 01:30:17;;;;;;;3.50;1.60;;;23.50;99.90;;;;;;5007903;28;20665;-77
2022/08/05 01:32:45;;;;;;;3.70;1.53;;;23.50;99.90;;;;;;4996454;28;20570;-77
2022/08/05 01:35:21;;;;;;;3.63;1.50;;;23.40;99.90;;;;;;4991450;28;20609;-78
2022/08/05 01:37:53;;;;;;;2.90;1.43;;;23.40;99.90;;;;;;4992013;28;20577;-76
2022/08/05 01:40:25;;;;;;;2.53;1.43;;;23.30;99.90;;;;;;4990731;28;20582;-76
2022/08/05 01:42:52;;;;;;;3.47;1.43;;;23.30;99.90;;;;;;4991919;28;20578;-76
2022/08/05 01:45:19;;;;;;;5.23;2.10;;;23.20;99.90;;;;;;4991568;28;20697;-77
2022/08/05 01:47:48;;;;;;;3.27;1.53;;;23.20;99.90;;;;;;4990702;28;20934;-77
2022/08/05 01:50:20;;;;;;;2.70;1.60;;;23.10;99.90;;;;;;4991982;28;20569;-77
2022/08/05 01:52:49;;;;;;;2.87;1.93;;;23.10;99.90;;;;;;4991865;28;20566;-77
2022/08/05 01:55:17;;;;;;;2.57;1.53;;;23.00;99.90;;;;;;4991521;28;20602;-77
2022/08/05 01:57:45;;;;;;;5.30;2.60;;;23.00;99.90;;;;;;4992026;28;20656;-77
2022/08/05 02:00:12;;;;;;;2.80;1.90;;;22.90;99.90;;;;;;5006873;28;20717;-77
2022/08/05 02:02:48;;;;;;;4.80;2.57;;;22.90;99.90;;;;;;4991032;28;20579;-77
2022/08/05 02:05:15;;;;;;;4.13;1.40;;;22.90;99.90;;;;;;4991634;28;20664;-77
2022/08/05 02:07:42;;;;;;;2.70;1.67;;;22.80;99.90;;;;;;4995453;28;20970;-77
2022/08/05 02:10:09;;;;;;;4.60;2.17;;;22.80;99.90;;;;;;4995054;28;20649;-77
2022/08/05 02:12:34;;;;;;;12.83;3.10;;;22.80;99.90;;;;;;4995467;28;20562;-76
2022/08/05 02:15:14;;;;;;;2.50;2.00;;;22.70;99.90;;;;;;4994851;28;20935;-77
2022/08/05 02:17:48;;;;;;;4.03;2.40;;;22.70;99.90;;;;;;4994020;28;20179;-77
2022/08/05 02:20:20;;;;;;;5.70;2.60;;;22.60;99.90;;;;;;4994030;28;20648;-77
2022/08/05 02:22:50;;;;;;;4.20;2.30;;;22.50;99.90;;;;;;4995105;28;20635;-77
2022/08/05 02:25:21;;;;;;;4.20;3.20;;;22.50;99.90;;;;;;4993397;28;21239;-76
2022/08/05 02:27:49;;;;;;;4.33;2.83;;;22.50;99.90;;;;;;4995157;28;20601;-76
2022/08/05 02:30:18;;;;;;;4.63;3.80;;;22.50;99.90;;;;;;5010390;28;20577;-76
2022/08/05 02:32:49;;;;;;;5.70;4.00;;;22.40;99.90;;;;;;4993753;28;20593;-76
2022/08/05 02:35:19;;;;;;;5.63;3.30;;;22.40;99.90;;;;;;5009499;28;20740;-77
2022/08/05 02:37:46;;;;;;;5.50;3.90;;;22.40;99.90;;;;;;4994966;28;20646;-76
2022/08/05 02:40:15;;;;;;;5.37;3.87;;;22.30;99.90;;;;;;4994910;28;20923;-77
2022/08/05 02:42:42;;;;;;;5.43;4.37;;;22.20;99.90;;;;;;5010013;28;20571;-76
2022/08/05 02:45:09;;;;;;;6.30;3.87;;;22.20;99.90;;;;;;4997740;28;20626;-76
2022/08/05 02:47:36;;;;;;;9.73;4.03;;;22.20;99.90;;;;;;4994679;28;20590;-77
2022/08/05 02:50:05;;;;;;;7.90;3.83;;;22.10;99.90;;;;;;5009919;28;21133;-77
2022/08/05 02:52:32;;;;;;;7.90;4.63;;;22.00;99.90;;;;;;4994502;28;20598;-77
2022/08/05 02:55:01;;;;;;;6.60;4.53;;;21.90;99.90;;;;;;4992910;28;20610;-77
2022/08/05 02:57:27;;;;;;;4.87;3.63;;;21.80;99.90;;;;;;4994457;28;20566;-77
2022/08/05 02:59:54;;;;;;;5.57;3.97;;;21.70;99.90;;;;;;5003021;28;20574;-76
2022/08/05 03:02:24;;;;;;;5.37;4.87;;;21.70;99.90;;;;;;4994769;28;20598;-77
2022/08/05 03:04:53;;;;;;;8.43;6.07;;;21.60;99.90;;;;;;4994064;28;21136;-76
2022/08/05 03:07:20;;;;;;;6.77;5.90;;;21.40;99.90;;;;;;4994590;28;20676;-77
2022/08/05 03:09:47;;;;;;;6.90;6.20;;;21.30;99.90;;;;;;4993122;28;20579;-77
2022/08/05 03:12:42;;;;;;;6.50;5.90;;;21.20;99.90;;;;;;4993088;28;20574;-76
2022/08/05 03:15:09;;;;;;;6.20;5.60;;;21.10;99.90;;;;;;4985118;28;20614;-77
2022/08/05 03:17:36;;;;;;;7.70;6.83;;;21.00;99.90;;;;;;5010625;28;20597;-77
2022/08/05 03:20:03;;;;;;;6.10;5.50;;;20.90;99.90;;;;;;5005112;28;20574;-76
2022/08/05 03:22:29;;;;;;;5.83;5.33;;;20.90;99.90;;;;;;4994519;28;20638;-76
2022/08/05 03:24:55;;;;;;;6.50;6.00;;;20.90;99.90;;;;;;4993731;28;20625;-77
2022/08/05 03:27:22;;;;;;;7.40;6.60;;;20.90;99.90;;;;;;5009414;28;20185;-76
2022/08/05 03:29:48;;;;;;;6.20;5.60;;;21.00;99.90;;;;;;4993792;28;20986;-77
2022/08/05 03:32:15;;;;;;;5.83;5.33;;;21.00;99.90;;;;;;4993044;28;20670;-76
2022/08/05 03:34:41;;;;;;;7.37;6.67;;;21.00;99.90;;;;;;4993642;28;20218;-76
2022/08/05 03:37:07;;;;;;;7.10;6.47;;;21.10;99.90;;;;;;4994259;28;20585;-76
2022/08/05 03:39:33;;;;;;;7.07;6.40;;;21.10;99.90;;;;;;4992677;28;20600;-75
2022/08/05 03:41:59;;;;;;;6.03;5.47;;;21.10;99.90;;;;;;4993978;28;20570;-76
2022/08/05 03:44:25;;;;;;;7.03;6.33;;;21.20;99.90;;;;;;4993509;28;20630;-76
2022/08/05 03:46:51;;;;;;;6.10;5.60;;;21.20;99.90;;;;;;4992001;28;20566;-76
2022/08/05 03:49:17;;;;;;;6.07;5.57;;;21.20;99.90;;;;;;4975954;28;20594;-76
2022/08/05 03:52:01;;;;;;;5.73;5.33;;;21.20;99.90;;;;;;5008263;28;20575;-76
2022/08/05 03:54:38;;;;;;;6.50;5.83;;;21.20;99.90;;;;;;4993497;28;20961;-77
2022/08/05 03:57:08;;;;;;;7.07;6.40;;;21.20;99.90;;;;;;4998020;28;20974;-76
2022/08/05 03:59:59;;;;;;;7.13;6.20;;;21.20;99.90;;;;;;4992174;28;20665;-77
2022/08/05 04:02:28;;;;;;;8.17;7.20;;;21.20;99.90;;;;;;4987693;28;20649;-76
2022/08/05 04:04:56;;;;;;;7.67;6.97;;;21.20;99.90;;;;;;4992564;28;21209;-76
2022/08/05 04:07:22;;;;;;;8.70;7.17;;;21.30;99.90;;;;;;5008241;28;20573;-76
2022/08/05 04:09:48;;;;;;;8.50;7.60;;;21.20;99.90;;;;;;4993077;28;20563;-76
2022/08/05 04:12:14;;;;;;;8.43;7.63;;;21.30;99.90;;;;;;4993038;28;20574;-76
2022/08/05 04:14:41;;;;;;;9.07;8.17;;;21.30;99.90;;;;;;4991343;28;20614;-76
2022/08/05 04:17:08;;;;;;;9.00;8.20;;;21.30;99.90;;;;;;4992889;28;20237;-76
2022/08/05 04:19:44;;;;;;;18.00;10.37;;;21.30;99.90;;;;;;4991635;28;20570;-76
2022/08/05 04:22:10;;;;;;;9.73;8.67;;;21.30;99.90;;;;;;4991708;28;20581;-76
2022/08/05 04:24:41;;;;;;;9.67;8.80;;;21.30;99.90;;;;;;4992566;28;20629;-76
2022/08/05 04:27:07;;;;;;;10.57;9.67;;;21.30;99.90;;;;;;4992809;28;20566;-76
2022/08/05 04:29:33;;;;;;;11.60;10.40;;;21.30;99.90;;;;;;4992739;28;20566;-76
2022/08/05 04:31:59;;;;;;;12.37;11.17;;;21.30;99.90;;;;;;4992971;28;20559;-77
2022/08/05 04:34:25;;;;;;;9.53;8.57;;;21.30;99.90;;;;;;4993776;28;20617;-76
2022/08/05 04:36:50;;;;;;;8.60;7.83;;;21.20;99.90;;;;;;4992119;28;20171;-76
2022/08/05 04:39:17;;;;;;;11.20;10.00;;;21.20;99.90;;;;;;5007677;28;20179;-76
2022/08/05 04:41:43;;;;;;;11.03;10.03;;;21.20;99.90;;;;;;4992737;28;20179;-76
2022/08/05 04:44:09;;;;;;;9.73;8.60;;;21.20;99.90;;;;;;4990986;28;20603;-76
2022/08/05 04:46:34;;;;;;;11.27;10.23;;;21.30;99.90;;;;;;5007373;28;20221;-76
2022/08/05 04:49:00;;;;;;;10.70;9.80;;;21.30;99.90;;;;;;4992558;28;20571;-77
2022/08/05 04:51:26;;;;;;;11.10;8.80;;;21.30;99.90;;;;;;4992599;28;20171;-77
2022/08/05 04:53:52;;;;;;;10.60;9.60;;;21.30;99.90;;;;;;5007515;28;20903;-76
2022/08/05 04:56:18;;;;;;;12.20;10.57;;;21.40;99.90;;;;;;5007277;28;20167;-77
2022/08/05 04:58:43;;;;;;;11.97;10.77;;;21.40;99.90;;;;;;4991225;28;20189;-76
2022/08/05 05:01:09;;;;;;;10.10;9.20;;;21.40;99.90;;;;;;4992320;28;20173;-77
2022/08/05 05:03:35;;;;;;;11.33;10.17;;;21.40;99.90;;;;;;5007559;28;20175;-77
2022/08/05 05:06:00;;;;;;;10.23;9.20;;;21.40;99.90;;;;;;4991792;28;20227;-76
2022/08/05 05:08:26;;;;;;;11.47;10.27;;;21.40;99.90;;;;;;4994040;28;20179;-77
2022/08/05 05:10:52;;;;;;;12.53;11.43;;;21.40;99.90;;;;;;4994024;28;20266;-76
2022/08/05 05:13:18;;;;;;;14.87;13.70;;;21.50;99.90;;;;;;5007613;28;20175;-77
2022/08/05 05:15:45;;;;;;;16.20;14.60;;;21.40;99.90;;;;;;4990439;28;20676;-76
2022/08/05 05:18:15;;;;;;;14.97;13.63;;;21.50;99.90;;;;;;4991145;28;20574;-75
2022/08/05 05:20:45;;;;;;;16.30;15.10;;;21.50;99.90;;;;;;4992280;28;20629;-74
2022/08/05 05:23:12;;;;;;;17.70;16.03;;;21.50;99.90;;;;;;4992280;28;20583;-75
2022/08/05 05:25:40;;;;;;;18.23;16.53;;;21.60;99.90;;;;;;5006751;28;20641;-75
2022/08/05 05:28:06;;;;;;;17.23;15.80;;;21.60;99.90;;;;;;4992105;28;20577;-75
2022/08/05 05:30:32;;;;;;;16.70;15.20;;;21.60;99.90;;;;;;4991985;28;20566;-75
2022/08/05 05:33:02;;;;;;;18.10;16.20;;;21.70;99.90;;;;;;4991900;28;20906;-76
2022/08/05 05:35:30;;;;;;;18.57;16.97;;;21.70;99.90;;;;;;4991368;28;20211;-75
2022/08/05 05:37:59;;;;;;;19.20;17.50;;;21.70;99.90;;;;;;4991982;28;20947;-76
2022/08/05 05:40:26;;;;;;;18.27;16.47;;;21.70;99.90;;;;;;4990611;28;20637;-75
2022/08/05 05:42:52;;;;;;;17.63;16.07;;;21.70;99.90;;;;;;4992056;28;20581;-75
2022/08/05 05:45:19;;;;;;;21.53;19.60;;;21.80;99.90;;;;;;4976956;28;20650;-75
2022/08/05 05:47:45;;;;;;;19.50;17.60;;;21.80;99.90;;;;;;4975227;28;20575;-75
2022/08/05 05:50:15;;;;;;;20.60;18.60;;;21.90;99.90;;;;;;4976368;28;20597;-75
2022/08/05 05:52:42;;;;;;;21.53;18.97;;;21.90;99.90;;;;;;4975034;28;20618;-76
2022/08/05 05:55:10;;;;;;;20.97;19.07;;;22.00;99.90;;;;;;4975762;28;20599;-76
2022/08/05 05:57:38;;;;;;;24.33;21.77;;;22.00;99.90;;;;;;4975242;28;20921;-75
2022/08/05 06:00:06;;;;;;;25.60;23.00;;;22.00;99.90;;;;;;4973116;28;20786;-76
2022/08/05 06:02:38;;;;;;;25.53;23.03;;;22.10;99.90;;;;;;4976295;28;20574;-77
2022/08/05 06:05:06;;;;;;;23.67;21.33;;;22.10;99.90;;;;;;4974324;28;21061;-77
2022/08/05 06:07:32;;;;;;;28.07;25.37;;;22.20;99.90;;;;;;4976338;28;20662;-77
2022/08/05 06:09:58;;;;;;;26.17;23.60;;;22.20;99.90;;;;;;4976009;28;20686;-76
2022/08/05 06:12:23;;;;;;;26.77;24.07;;;22.20;99.90;;;;;;4975669;28;20172;-77
2022/08/05 06:14:49;;;;;;;24.80;22.20;;;22.30;99.90;;;;;;4975219;28;20199;-77
2022/08/05 06:17:15;;;;;;;26.27;23.50;;;22.30;99.90;;;;;;4983709;28;20180;-78
2022/08/05 06:19:41;;;;;;;26.73;23.90;;;22.30;99.90;;;;;;4975738;28;20632;-78
2022/08/05 06:22:07;;;;;;;26.53;23.80;;;22.40;99.90;;;;;;4978148;28;20659;-79
2022/08/05 06:24:34;;;;;;;26.40;23.67;;;22.50;99.90;;;;;;4969474;28;20203;-79
2022/08/05 06:27:00;;;;;;;28.23;25.33;;;22.50;99.90;;;;;;4976976;28;20601;-76
2022/08/05 06:29:26;;;;;;;26.87;23.37;;;22.60;99.90;;;;;;4981894;28;20927;-78
2022/08/05 06:31:52;;;;;;;28.53;25.53;;;22.60;99.90;;;;;;4976194;28;20583;-80
2022/08/05 06:34:18;;;;;;;30.10;26.67;;;22.60;99.90;;;;;;4977500;28;20207;-80
2022/08/05 06:36:44;;;;;;;30.10;26.90;;;22.70;99.90;;;;;;4976635;28;20528;-80
2022/08/05 06:39:10;;;;;;;32.17;28.43;;;22.70;99.90;;;;;;4943887;28;20586;-79
2022/08/05 06:41:36;;;;;;;34.10;27.00;;;22.70;99.90;;;;;;4996239;23;20214;-74
2022/08/05 06:44:02;;;;;;;32.60;26.50;;;22.60;99.90;;;;;;4987352;28;20558;-74
2022/08/05 06:46:27;;;;;;;31.33;27.73;;;22.60;99.90;;;;;;4992963;28;20578;-74
2022/08/05 06:48:53;;;;;;;32.50;27.70;;;22.60;99.90;;;;;;4994552;28;21152;-74
2022/08/05 06:51:19;;;;;;;35.00;30.73;;;22.60;99.90;;;;;;4993227;28;20213;-74
2022/08/05 06:53:45;;;;;;;32.97;26.83;;;22.60;99.90;;;;;;4994630;28;20159;-75
2022/08/05 06:56:10;;;;;;;34.73;28.17;;;22.50;99.90;;;;;;4994092;28;20263;-74
2022/08/05 06:58:36;;;;;;;31.67;27.80;;;22.50;99.90;;;;;;4994567;28;20198;-74
2022/08/05 07:01:04;;;;;;;31.40;27.67;;;22.50;99.90;;;;;;4994373;28;20242;-75
2022/08/05 07:03:31;;;;;;;28.30;25.33;;;22.50;99.90;;;;;;4993185;28;20175;-76
2022/08/05 07:05:57;;;;;;;32.20;27.47;;;22.50;99.90;;;;;;4994064;28;20992;-75
2022/08/05 07:08:23;;;;;;;28.57;24.80;;;22.50;99.90;;;;;;4993863;28;20585;-76
2022/08/05 07:10:50;;;;;;;27.13;24.33;;;22.50;99.90;;;;;;4992896;28;20609;-76
2022/08/05 07:18:46;;;;;;;22.30;20.17;;;22.50;99.90;;;;;;4994427;28;20574;-76
2022/08/05 07:21:11;;;;;;;23.07;20.63;;;22.50;99.90;;;;;;4994830;28;20601;-75
2022/08/05 07:23:38;;;;;;;25.57;22.77;;;22.50;99.90;;;;;;4992985;28;20634;-76
2022/08/05 07:26:04;;;;;;;26.53;23.83;;;22.50;99.90;;;;;;4993679;28;20617;-76
2022/08/05 07:28:30;;;;;;;26.30;23.90;;;22.50;99.90;;;;;;4992760;28;20181;-76
2022/08/05 07:30:55;;;;;;;29.93;26.57;;;22.50;99.90;;;;;;4993828;28;20606;-75
2022/08/05 07:33:21;;;;;;;30.53;26.47;;;22.60;99.90;;;;;;4993790;28;20666;-75
2022/08/05 07:35:47;;;;;;;28.77;25.83;;;22.60;99.90;;;;;;4993742;28;20182;-75
2022/08/05 07:38:14;;;;;;;30.97;27.70;;;22.60;99.90;;;;;;4992713;28;20269;-76
2022/08/05 07:40:40;;;;;;;28.63;25.63;;;22.60;99.90;;;;;;4992325;28;20610;-76
2022/08/05 07:43:06;;;;;;;30.90;27.50;;;22.60;99.90;;;;;;4993920;28;20586;-76
2022/08/05 07:45:32;;;;;;;32.23;27.83;;;22.60;99.90;;;;;;4992252;28;20210;-75
2022/08/05 07:47:58;;;;;;;34.03;30.37;;;22.60;99.90;;;;;;4993415;28;20573;-74
2022/08/05 07:50:24;;;;;;;34.03;30.67;;;22.60;99.90;;;;;;4991454;28;20634;-74
2022/08/05 07:52:50;;;;;;;34.50;30.90;;;22.60;99.90;;;;;;4991179;28;20665;-74
2022/08/05 07:55:16;;;;;;;33.10;29.90;;;22.60;99.90;;;;;;4992883;28;21181;-74
2022/08/05 07:57:41;;;;;;;39.50;35.40;;;22.50;99.90;;;;;;4993161;28;20665;-75
2022/08/05 08:00:08;;;;;;;36.40;32.70;;;22.50;99.90;;;;;;4991514;28;20654;-75
2022/08/05 08:02:37;;;;;;;33.73;30.27;;;22.40;99.90;;;;;;4991368;28;20194;-75
2022/08/05 08:05:03;;;;;;;37.43;33.37;;;22.40;99.90;;;;;;4959095;28;20626;-75
2022/08/05 08:07:29;;;;;;;33.43;30.20;;;22.40;99.90;;;;;;4991379;28;20578;-75
2022/08/05 08:09:55;;;;;;;30.23;27.30;;;22.30;99.90;;;;;;4993052;28;20566;-75
2022/08/05 08:12:22;;;;;;;28.23;25.43;;;22.30;99.90;;;;;;4991593;28;20202;-75
2022/08/05 08:14:48;;;;;;;30.07;27.10;;;22.20;99.90;;;;;;4975184;28;20613;-75
2022/08/05 08:17:14;;;;;;;35.73;32.43;;;22.20;99.90;;;;;;4991801;28;20577;-75
2022/08/05 08:19:42;;;;;;;39.77;34.63;;;22.10;99.90;;;;;;4991645;28;20583;-75
2022/08/05 08:22:08;;;;;;;39.90;35.90;;;22.00;99.90;;;;;;4992813;28;20578;-75
2022/08/05 08:24:35;;;;;;;38.57;34.80;;;22.00;99.90;;;;;;4991463;28;20620;-76
2022/08/05 08:27:01;;;;;;;39.23;35.47;;;21.90;99.90;;;;;;4992781;28;20574;-76
2022/08/05 08:29:27;;;;;;;37.43;33.80;;;21.90;99.90;;;;;;4991705;28;20613;-75
2022/08/05 08:31:53;;;;;;;39.60;35.17;;;21.80;99.90;;;;;;4993026;28;20653;-76
2022/08/05 08:34:21;;;;;;;38.13;34.33;;;21.70;99.90;;;;;;4991593;28;20175;-76
2022/08/05 08:36:47;;;;;;;39.87;35.97;;;21.70;99.90;;;;;;4993062;28;20195;-76
2022/08/05 08:39:13;;;;;;;35.37;32.07;;;21.70;99.90;;;;;;4992289;28;20974;-75
2022/08/05 08:41:46;;;;;;;32.03;29.03;;;21.70;99.90;;;;;;4992548;28;20570;-76
2022/08/05 08:44:14;;;;;;;33.00;29.90;;;21.70;99.90;;;;;;4992930;28;20677;-75
2022/08/05 08:46:41;;;;;;;37.60;33.73;;;21.70;99.90;;;;;;4975502;28;20578;-75
2022/08/05 08:49:09;;;;;;;34.50;31.17;;;21.70;99.90;;;;;;4992026;28;20648;-75
2022/08/05 08:51:37;;;;;;;34.17;30.87;;;21.70;99.90;;;;;;4991648;28;20617;-75
2022/08/05 08:54:03;;;;;;;36.70;33.13;;;21.70;99.90;;;;;;4991607;28;21105;-75
2022/08/05 08:56:31;;;;;;;36.40;32.77;;;21.60;99.90;;;;;;4992817;28;20637;-75
2022/08/05 08:58:58;;;;;;;32.00;29.03;;;21.60;99.90;;;;;;4992457;28;20933;-75
2022/08/05 09:01:24;;;;;;;31.90;28.93;;;21.50;99.90;;;;;;4975070;28;20602;-75
2022/08/05 09:03:52;;;;;;;29.43;26.60;;;21.50;99.90;;;;;;4992475;28;20577;-75
2022/08/05 09:06:19;;;;;;;28.57;25.77;;;21.50;99.90;;;;;;4992173;28;20702;-75
2022/08/05 09:08:45;;;;;;;24.13;21.93;;;21.40;99.90;;;;;;4991605;28;20656;-75
2022/08/05 09:11:12;;;;;;;25.50;22.97;;;21.40;99.90;;;;;;4992273;28;20605;-75
2022/08/05 09:13:38;;;;;;;23.73;21.47;;;21.40;99.90;;;;;;4991106;28;20570;-75
2022/08/05 09:16:07;;;;;;;23.37;20.80;;;21.40;99.90;;;;;;4992178;28;20570;-75
2022/08/05 09:18:35;;;;;;;21.57;19.20;;;21.40;99.90;;;;;;4993222;28;20574;-75
2022/08/05 09:21:01;;;;;;;18.20;16.27;;;21.40;99.90;;;;;;4995127;28;20712;-75
2022/08/05 09:23:27;;;;;;;15.80;14.27;;;21.40;99.90;;;;;;4995160;28;20673;-75
2022/08/05 09:26:06;;;;;;;15.57;13.93;;;21.40;99.90;;;;;;4996083;28;20705;-74
2022/08/05 09:28:33;;;;;;;14.67;13.17;;;21.40;99.90;;;;;;4978972;28;20182;-74
2022/08/05 09:31:17;;;;;;;12.90;11.60;;;21.40;99.90;;;;;;4996304;28;20608;-75
2022/08/05 09:33:57;;;;;;;11.63;10.57;;;21.40;99.90;;;;;;4996167;28;21016;-74
2022/08/05 09:36:23;;;;;;;13.40;12.20;;;21.50;99.90;;;;;;4996147;28;20602;-75
2022/08/05 09:38:57;;;;;;;9.70;8.90;;;21.60;99.90;;;;;;4978606;28;20680;-75
2022/08/05 09:41:23;;;;;;;11.07;9.90;;;21.60;99.90;;;;;;4994491;28;20662;-75
2022/08/05 09:43:49;;;;;;;10.93;10.07;;;21.60;99.90;;;;;;4995971;28;20661;-75
2022/08/05 09:46:29;;;;;;;9.77;8.93;;;21.60;99.90;;;;;;4994579;28;20708;-75
2022/08/05 09:49:03;;;;;;;10.40;8.70;;;21.60;99.90;;;;;;4996078;28;20254;-75
2022/08/05 09:51:35;;;;;;;9.53;8.80;;;21.60;99.90;;;;;;4995951;28;20594;-77
2022/08/05 09:54:03;;;;;;;8.40;7.40;;;21.60;99.90;;;;;;4978376;28;20593;-75
2022/08/05 09:56:36;;;;;;;9.57;8.67;;;21.60;99.90;;;;;;4995687;28;20956;-76
2022/08/05 09:59:06;;;;;;;11.70;8.37;;;21.60;99.90;;;;;;4995851;28;20652;-76
2022/08/05 10:01:35;;;;;;;8.90;8.03;;;21.60;99.90;;;;;;4978119;28;20691;-76
2022/08/05 10:04:07;;;;;;;8.77;7.83;;;21.60;99.90;;;;;;4994300;28;20910;-76
2022/08/05 10:06:33;;;;;;;8.13;7.53;;;21.50;99.90;;;;;;4994597;28;20984;-77
2022/08/05 10:09:17;;;;;;;8.07;7.37;;;21.50;99.90;;;;;;4994438;28;20573;-75
2022/08/05 10:11:44;;;;;;;9.30;8.53;;;21.50;99.90;;;;;;4995793;28;21274;-76
2022/08/05 10:14:26;;;;;;;8.63;7.80;;;21.50;99.90;;;;;;4995425;28;21164;-76
2022/08/05 10:16:55;;;;;;;10.10;9.10;;;21.60;99.90;;;;;;4995162;28;20569;-74
2022/08/05 10:19:22;;;;;;;8.97;8.13;;;21.70;99.90;;;;;;4995517;28;20922;-78
2022/08/05 10:21:49;;;;;;;8.53;7.93;;;21.60;99.90;;;;;;4994441;28;20625;-75
2022/08/05 10:24:19;;;;;;;8.57;7.87;;;21.70;99.90;;;;;;4993842;28;20578;-76
2022/08/05 10:26:48;;;;;;;7.13;6.43;;;21.90;99.90;;;;;;4977683;28;20597;-75
2022/08/05 10:29:14;;;;;;;8.03;6.77;;;21.90;99.90;;;;;;4993350;28;20931;-75
2022/08/05 10:31:40;;;;;;;6.97;6.47;;;22.00;99.90;;;;;;4995540;28;20730;-75
2022/08/05 10:34:09;;;;;;;8.10;6.57;;;22.20;99.90;;;;;;4977972;28;20559;-76
2022/08/05 10:36:37;;;;;;;6.43;5.73;;;22.30;99.90;;;;;;4977608;28;20570;-75
2022/08/05 10:39:17;;;;;;;6.50;5.90;;;22.40;99.90;;;;;;4993791;28;20681;-76
2022/08/05 10:41:59;;;;;;;5.87;5.37;;;22.50;99.90;;;;;;4993774;28;20621;-76
2022/08/05 10:44:26;;;;;;;5.33;4.83;;;22.60;99.90;;;;;;4977364;28;20773;-75
2022/08/05 10:46:54;;;;;;;4.90;4.50;;;22.80;99.90;;;;;;4995149;28;20896;-76
2022/08/05 10:49:22;;;;;;;4.93;4.53;;;22.90;99.90;;;;;;4994219;28;20926;-75
2022/08/05 10:51:56;;;;;;;7.77;4.97;;;23.00;99.90;;;;;;4994969;28;20604;-75
2022/08/05 10:54:23;;;;;;;4.67;3.90;;;23.10;99.90;;;;;;4993901;28;20662;-75
2022/08/05 10:56:56;;;;;;;4.87;3.63;;;23.20;99.90;;;;;;4994881;28;20563;-77
2022/08/05 10:59:27;;;;;;;3.73;2.90;;;23.20;99.90;;;;;;4995472;28;20597;-77
2022/08/05 11:02:07;;;;;;;4.73;2.60;;;23.30;99.90;;;;;;4977526;28;20664;-77
2022/08/05 11:04:53;;;;;;;3.47;2.73;;;23.50;99.90;;;;;;4994125;28;20630;-77
2022/08/05 11:07:20;;;;;;;3.20;2.07;;;23.60;99.90;;;;;;4993915;28;20682;-77
2022/08/05 11:09:53;;;;;;;4.37;3.13;;;23.90;99.90;;;;;;4977322;28;20570;-78
2022/08/05 11:12:35;;;;;;;3.30;2.50;;;24.10;99.90;;;;;;4994689;28;20664;-77
2022/08/05 11:15:15;;;;;;;4.93;2.33;;;24.40;99.90;;;;;;4994662;28;20973;-75
2022/08/05 11:17:43;;;;;;;3.30;1.90;;;24.80;99.90;;;;;;4994599;28;20581;-76
2022/08/05 11:20:38;;;;;;;4.17;2.17;;;25.30;99.90;;;;;;4993606;28;20617;-76
2022/08/05 11:23:27;;;;;;;3.93;2.17;;;25.60;99.90;;;;;;4993353;28;20571;-75
2022/08/05 11:26:08;;;;;;;5.63;2.17;;;25.90;99.90;;;;;;4994127;28;20780;-76
2022/08/05 11:28:34;;;;;;;3.33;2.30;;;26.10;99.90;;;;;;4993017;28;20574;-76
2022/08/05 11:31:02;;;;;;;3.33;2.03;;;26.10;99.90;;;;;;4976841;28;20656;-77
2022/08/05 11:33:55;;;;;;;3.40;2.20;;;26.00;99.90;;;;;;4994452;28;20692;-75
2022/08/05 11:36:50;;;;;;;3.90;3.00;;;26.00;99.90;;;;;;4968307;28;20602;-76
2022/08/05 11:39:46;;;;;;;3.20;2.03;;;26.00;99.90;;;;;;4994675;28;20558;-77
2022/08/05 11:42:13;;;;;;;4.13;1.83;;;26.20;99.90;;;;;;4994229;28;20971;-76
2022/08/05 11:44:43;;;;;;;2.90;1.27;;;26.60;99.90;;;;;;4976487;28;20701;-77
2022/08/05 11:47:09;;;;;;;3.70;1.50;;;27.00;99.90;;;;;;4993241;28;20581;-77
2022/08/05 11:49:36;;;;;;;2.13;1.70;;;27.40;99.90;;;;;;4993521;28;21173;-76
2022/08/05 11:52:02;;;;;;;33.40;1.90;;;27.70;99.90;;;;;;4996328;28;21063;-75
2022/08/05 11:54:31;;;;;;;3.67;1.37;;;28.00;99.90;;;;;;4994148;28;20673;-76
2022/08/05 11:56:58;;;;;;;2.93;1.17;;;28.30;99.90;;;;;;4977204;28;20950;-76
2022/08/05 11:59:27;;;;;;;2.40;1.40;;;28.40;99.90;;;;;;4994113;28;20573;-76
2022/08/05 12:02:01;;;;;;;2.33;1.60;;;28.60;99.90;;;;;;4999248;28;20709;-76
2022/08/05 12:04:43;;;;;;;1.73;0.90;;;28.70;99.90;;;;;;4993937;28;20624;-77
2022/08/05 12:07:14;;;;;;;2.90;0.97;;;28.70;99.90;;;;;;4993755;28;20577;-77
2022/08/05 12:10:01;;;;;;;2.10;1.13;;;28.90;99.90;;;;;;4993795;28;20924;-77
2022/08/05 12:12:28;;;;;;;1.63;1.00;;;28.90;99.90;;;;;;4994086;28;20617;-77
2022/08/05 12:14:54;;;;;;;1.80;0.90;;;29.10;99.90;;;;;;4992342;28;20615;-77
2022/08/05 12:17:20;;;;;;;1.67;0.80;;;29.30;99.90;;;;;;4976051;28;20574;-77
2022/08/05 12:19:49;;;;;;;1.77;0.83;;;29.40;99.90;;;;;;4993567;28;20570;-77
2022/08/05 12:22:18;;;;;;;1.63;0.80;;;29.60;99.90;;;;;;4993674;28;20211;-77
2022/08/05 12:24:47;;;;;;;2.47;1.10;;;29.80;99.90;;;;;;4975702;28;20632;-77
2022/08/05 12:27:24;;;;;;;1.90;1.00;;;30.00;99.90;;;;;;4993516;28;20620;-77
2022/08/05 12:30:08;;;;;;;2.27;0.93;;;30.10;99.90;;;;;;4993694;28;20680;-77
2022/08/05 12:32:42;;;;;;;2.67;0.80;;;30.30;99.90;;;;;;4961795;28;20583;-84
2022/08/05 12:35:14;;;;;;;2.77;0.90;;;30.40;99.90;;;;;;4978637;28;20590;-83
2022/08/05 12:37:41;;;;;;;2.70;1.00;;;30.50;99.90;;;;;;4994144;28;20674;-83
2022/08/05 12:40:10;;;;;;;1.90;1.00;;;30.60;99.90;;;;;;4994884;28;20677;-82
2022/08/05 12:42:36;;;;;;;1.93;1.00;;;30.60;99.90;;;;;;4995786;28;20605;-83
2022/08/05 12:45:05;;;;;;;2.07;1.30;;;30.70;99.50;;;;;;4993741;28;20622;-83
2022/08/05 12:47:31;;;;;;;2.50;1.10;;;30.60;98.00;;;;;;4993820;28;20571;-84
2022/08/05 12:49:58;;;;;;;1.60;1.00;;;30.50;97.60;;;;;;4993469;28;20555;-83
2022/08/05 12:52:24;;;;;;;2.43;1.37;;;30.40;96.60;;;;;;4991728;28;20602;-83